Time;durP1;ratioP1;P1;durP2;ratioP2;P2;SDS_P1;SDS_P2;PMS_P1;PMS_P2;Temp;Humidity;BMP_temperature;BMP_pressure;BME280_temperature;BME280_humidity;BME280_pressure;Samples;Min_cycle;Max_cycle;Signal;HPM_P1;HPM_P2
2023/04/03 00:01:12;;;;;;;5.43;4.93;;;2.90;99.90;;;;;;4985059;28;20387;-32
2023/04/03 00:03:38;;;;;;;3.88;3.45;;;2.90;99.90;;;;;;4985877;28;20022;-32
2023/04/03 00:06:06;;;;;;;6.82;4.10;;;2.80;99.90;;;;;;4984540;28;20039;-32
2023/04/03 00:08:32;;;;;;;;;;;2.80;99.90;;;;;;4982619;28;20053;-32
2023/04/03 00:10:58;;;;;;;5.90;4.43;;;2.80;99.90;;;;;;4978895;28;20355;-31
2023/04/03 00:13:25;;;;;;;3.80;3.50;;;2.80;99.90;;;;;;4983694;28;20062;-32
2023/04/03 00:15:51;;;;;;;5.82;4.18;;;2.90;99.90;;;;;;4984347;28;20026;-32
2023/04/03 00:18:17;;;;;;;4.50;3.80;;;2.80;99.90;;;;;;4985515;28;20248;-32
2023/04/03 00:20:43;;;;;;;4.82;3.78;;;2.80;99.90;;;;;;4980408;28;20638;-31
2023/04/03 00:23:08;;;;;;;4.35;3.95;;;2.90;99.90;;;;;;4982731;28;20022;-31
2023/04/03 00:25:35;;;;;;;3.97;2.97;;;2.80;99.90;;;;;;4984536;28;20081;-31
2023/04/03 00:28:00;;;;;;;3.65;3.35;;;2.80;99.90;;;;;;4984692;28;20480;-32
2023/04/03 00:30:26;;;;;;;4.95;3.90;;;2.80;99.90;;;;;;4984835;28;20084;-31
2023/04/03 00:32:53;;;;;;;6.28;4.07;;;2.80;99.90;;;;;;4985264;28;20593;-32
2023/04/03 00:35:20;;;;;;;4.18;3.78;;;2.80;99.90;;;;;;4981266;28;20030;-31
2023/04/03 00:37:45;;;;;;;4.20;3.80;;;2.80;99.90;;;;;;4995095;28;20038;-32
2023/04/03 00:40:14;;;;;;;3.35;3.05;;;2.80;99.90;;;;;;4981744;28;20049;-31
2023/04/03 00:42:41;;;;;;;3.97;3.38;;;2.80;99.90;;;;;;4984923;28;20045;-32
2023/04/03 00:45:33;;;;;;;4.07;3.67;;;2.70;99.90;;;;;;4981218;28;20411;-32
2023/04/03 00:48:01;;;;;;;6.55;3.90;;;2.70;99.90;;;;;;4978663;28;20289;-31
2023/04/03 00:50:29;;;;;;;3.20;2.90;;;2.80;99.90;;;;;;4979735;28;20045;-31
2023/04/03 00:52:56;;;;;;;3.67;3.20;;;2.80;99.90;;;;;;4981448;28;20049;-31
2023/04/03 00:55:22;;;;;;;4.15;3.60;;;2.80;99.90;;;;;;4979139;28;20026;-31
2023/04/03 00:57:48;;;;;;;3.72;3.00;;;2.80;99.90;;;;;;4980627;28;20141;-31
2023/04/03 01:00:18;;;;;;;4.03;2.95;;;2.80;99.90;;;;;;4982775;28;20480;-37
2023/04/03 01:02:45;;;;;;;4.00;3.20;;;2.70;99.90;;;;;;4961551;28;20051;-42
2023/04/03 01:05:11;;;;;;;4.60;2.88;;;2.80;99.90;;;;;;4961256;28;20543;-42
2023/04/03 01:07:37;;;;;;;3.65;2.90;;;2.70;99.90;;;;;;4959515;28;20050;-42
2023/04/03 01:10:07;;;;;;;3.22;2.83;;;2.70;99.90;;;;;;4966051;28;20042;-42
2023/04/03 01:12:45;;;;;;;4.18;2.83;;;2.70;99.90;;;;;;4958023;28;20023;-42
2023/04/03 01:15:14;;;;;;;3.57;2.67;;;2.70;99.90;;;;;;4966470;28;20058;-42
2023/04/03 01:17:46;;;;;;;3.47;2.90;;;2.70;99.90;;;;;;4965905;28;20060;-42
2023/04/03 01:20:29;;;;;;;3.03;2.80;;;2.70;99.90;;;;;;4959010;28;20031;-42
2023/04/03 01:23:13;;;;;;;4.15;3.08;;;2.70;99.90;;;;;;4965169;28;20484;-42
2023/04/03 01:25:47;;;;;;;3.58;2.70;;;2.70;99.90;;;;;;4965702;28;20058;-42
2023/04/03 01:28:19;;;;;;;3.50;2.67;;;2.70;99.90;;;;;;4958567;28;20077;-42
2023/04/03 01:30:48;;;;;;;2.60;2.40;;;2.70;99.90;;;;;;4962932;28;20499;-42
2023/04/03 01:33:14;;;;;;;2.85;2.55;;;2.70;99.90;;;;;;4962577;28;20027;-42
2023/04/03 01:35:40;;;;;;;3.00;2.40;;;2.70;99.90;;;;;;4961579;28;20077;-42
2023/04/03 01:38:05;;;;;;;2.75;2.53;;;2.70;99.90;;;;;;4955276;28;20614;-42
2023/04/03 01:40:31;;;;;;;3.22;2.80;;;2.70;99.90;;;;;;4963431;28;20031;-42
2023/04/03 01:42:57;;;;;;;3.20;2.92;;;2.70;99.90;;;;;;4964967;28;20437;-42
2023/04/03 01:45:22;;;;;;;4.15;2.90;;;2.70;99.90;;;;;;4960782;28;20030;-42
2023/04/03 01:47:48;;;;;;;3.33;2.67;;;2.70;99.90;;;;;;4962112;28;20072;-42
2023/04/03 01:50:14;;;;;;;3.17;2.70;;;2.70;99.90;;;;;;4961812;28;20054;-42
2023/04/03 01:52:40;;;;;;;3.40;3.10;;;2.60;99.90;;;;;;4963879;28;20509;-42
2023/04/03 01:55:06;;;;;;;2.60;2.40;;;2.60;99.90;;;;;;4963156;28;20062;-42
2023/04/03 01:57:31;;;;;;;4.00;2.75;;;2.60;99.90;;;;;;4960302;28;20097;-42
2023/04/03 01:59:57;;;;;;;4.93;2.92;;;2.60;99.90;;;;;;4961228;28;20034;-42
2023/04/03 02:02:22;;;;;;;3.60;2.60;;;2.60;99.90;;;;;;4963881;28;20039;-42
2023/04/03 02:04:48;;;;;;;3.50;3.20;;;2.60;99.90;;;;;;4959964;28;20122;-42
2023/04/03 02:07:14;;;;;;;2.95;2.63;;;2.60;99.90;;;;;;4963843;28;20046;-42
2023/04/03 02:09:39;;;;;;;2.97;2.67;;;2.60;99.90;;;;;;4971744;28;20030;-42
2023/04/03 02:12:05;;;;;;;2.72;2.53;;;2.60;99.90;;;;;;4962887;28;20023;-42
2023/04/03 02:14:31;;;;;;;2.75;2.28;;;2.60;99.90;;;;;;4959231;28;20041;-42
2023/04/03 02:16:56;;;;;;;3.42;3.08;;;2.60;99.90;;;;;;4959114;28;20030;-42
2023/04/03 02:19:22;;;;;;;2.40;2.20;;;2.60;99.90;;;;;;4959330;28;20452;-42
2023/04/03 02:21:48;;;;;;;3.67;2.83;;;2.60;99.90;;;;;;4961028;28;20061;-42
2023/04/03 02:24:13;;;;;;;2.85;2.47;;;2.60;99.90;;;;;;4964269;28;20030;-42
2023/04/03 02:26:39;;;;;;;3.17;2.88;;;2.60;99.90;;;;;;4958757;28;20027;-42
2023/04/03 02:29:05;;;;;;;4.07;2.80;;;2.60;99.90;;;;;;4958244;28;20094;-42
2023/04/03 02:31:31;;;;;;;3.85;2.75;;;2.60;99.90;;;;;;4969262;28;20077;-42
2023/04/03 02:33:57;;;;;;;2.92;2.58;;;2.60;99.90;;;;;;4978732;28;20023;-42
2023/04/03 02:36:22;;;;;;;4.65;2.83;;;2.60;99.90;;;;;;4982781;28;20030;-42
2023/04/03 02:38:48;;;;;;;3.88;2.60;;;2.60;99.90;;;;;;4983059;28;20105;-42
2023/04/03 02:41:13;;;;;;;3.53;3.15;;;2.60;99.90;;;;;;4984568;28;20030;-42
2023/04/03 02:43:39;;;;;;;3.83;2.65;;;2.60;99.90;;;;;;4986648;28;20030;-42
2023/04/03 02:46:06;;;;;;;3.05;2.75;;;2.60;99.90;;;;;;4980142;28;20608;-42
2023/04/03 02:48:31;;;;;;;4.03;3.00;;;2.60;99.90;;;;;;4985168;28;20035;-42
2023/04/03 02:50:57;;;;;;;3.30;2.97;;;2.60;99.90;;;;;;4986311;28;20029;-43
2023/04/03 02:53:23;;;;;;;2.72;2.33;;;2.60;99.90;;;;;;4984528;28;20026;-42
2023/04/03 02:55:49;;;;;;;4.05;3.08;;;2.60;99.90;;;;;;4983640;28;20184;-42
2023/04/03 02:58:15;;;;;;;4.57;3.50;;;2.60;99.90;;;;;;4985464;28;20497;-42
2023/04/03 03:00:40;;;;;;;4.50;2.72;;;2.60;99.90;;;;;;4982408;28;20084;-42
2023/04/03 03:03:06;;;;;;;3.70;2.90;;;2.60;99.90;;;;;;4986152;28;20022;-42
2023/04/03 03:05:32;;;;;;;3.85;2.75;;;2.50;99.90;;;;;;4981571;28;20037;-42
2023/04/03 03:07:57;;;;;;;3.72;2.70;;;2.50;99.90;;;;;;4986960;28;20496;-42
2023/04/03 03:10:23;;;;;;;3.50;2.80;;;2.50;99.90;;;;;;4983991;28;20080;-42
2023/04/03 03:12:49;;;;;;;2.85;2.58;;;2.50;99.90;;;;;;4986533;28;20053;-43
2023/04/03 03:15:17;;;;;;;3.33;3.03;;;2.50;99.90;;;;;;4980114;28;20033;-42
2023/04/03 03:17:43;;;;;;;2.90;2.70;;;2.50;99.90;;;;;;4990632;28;20361;-42
2023/04/03 03:20:09;;;;;;;3.10;2.72;;;2.50;99.90;;;;;;4984960;28;20038;-42
2023/04/03 03:22:35;;;;;;;3.17;2.88;;;2.50;99.90;;;;;;4983600;28;20049;-42
2023/04/03 03:25:02;;;;;;;3.38;2.97;;;2.50;99.90;;;;;;4983843;28;20030;-43
2023/04/03 03:27:28;;;;;;;3.20;2.90;;;2.50;99.90;;;;;;4981770;28;20061;-43
2023/04/03 03:29:53;;;;;;;3.75;3.00;;;2.60;99.90;;;;;;4986541;28;20074;-42
2023/04/03 03:32:19;;;;;;;3.25;2.88;;;2.50;99.90;;;;;;4982011;28;20077;-42
2023/04/03 03:34:45;;;;;;;5.13;3.20;;;2.50;99.90;;;;;;4985903;28;20042;-42
2023/04/03 03:37:10;;;;;;;4.03;3.30;;;2.50;99.90;;;;;;4981666;28;20113;-42
2023/04/03 03:39:36;;;;;;;4.25;3.30;;;2.50;99.90;;;;;;4981698;28;20042;-42
2023/04/03 03:42:01;;;;;;;4.68;3.15;;;2.50;99.90;;;;;;4982598;28;20031;-42
2023/04/03 03:44:28;;;;;;;3.55;3.25;;;2.40;99.90;;;;;;4981076;28;20038;-42
2023/04/03 03:46:55;;;;;;;5.03;3.13;;;2.40;99.90;;;;;;4984480;28;20077;-42
2023/04/03 03:49:21;;;;;;;3.42;3.03;;;2.50;99.90;;;;;;4984654;28;20042;-43
2023/04/03 03:51:46;;;;;;;3.55;3.08;;;2.50;99.90;;;;;;4985368;28;20034;-43
2023/04/03 03:54:13;;;;;;;4.25;3.33;;;2.50;99.90;;;;;;4982667;28;20395;-42
2023/04/03 03:56:39;;;;;;;5.00;3.50;;;2.50;99.90;;;;;;4984331;28;20050;-42
2023/04/03 03:59:05;;;;;;;4.22;3.38;;;2.50;99.90;;;;;;4983114;28;20022;-43
2023/04/03 04:01:31;;;;;;;3.17;2.85;;;2.50;99.90;;;;;;4981632;28;20031;-42
2023/04/03 04:03:57;;;;;;;4.70;3.13;;;2.40;99.90;;;;;;4984151;28;20030;-43
2023/04/03 04:06:23;;;;;;;3.95;3.60;;;2.40;99.90;;;;;;4984401;28;20038;-42
2023/04/03 04:08:48;;;;;;;3.85;3.15;;;2.40;99.90;;;;;;4985284;28;20034;-42
2023/04/03 04:11:14;;;;;;;3.58;3.28;;;2.40;99.90;;;;;;4983890;28;20049;-42
2023/04/03 04:13:40;;;;;;;5.35;3.22;;;2.40;99.90;;;;;;4983594;28;20026;-43
2023/04/03 04:16:06;;;;;;;4.72;3.22;;;2.40;99.90;;;;;;4980391;28;20124;-43
2023/04/03 04:18:32;;;;;;;5.38;3.75;;;2.50;99.90;;;;;;4980651;28;20045;-43
2023/04/03 04:20:57;;;;;;;3.78;3.08;;;2.40;99.90;;;;;;4981739;28;20034;-42
2023/04/03 04:23:23;;;;;;;3.83;3.40;;;2.40;99.90;;;;;;4978207;28;20445;-42
2023/04/03 04:25:49;;;;;;;3.35;2.83;;;2.40;99.90;;;;;;4986488;28;20039;-42
2023/04/03 04:28:15;;;;;;;4.13;3.30;;;2.40;99.90;;;;;;4983028;28;20030;-43
2023/04/03 04:30:41;;;;;;;4.40;3.25;;;2.40;99.90;;;;;;4982314;28;20145;-43
2023/04/03 04:33:07;;;;;;;3.30;3.00;;;2.40;99.90;;;;;;4981383;28;20101;-42
2023/04/03 04:35:33;;;;;;;3.28;2.83;;;2.40;99.90;;;;;;4984137;28;20538;-42
2023/04/03 04:37:59;;;;;;;3.45;3.15;;;2.40;99.90;;;;;;4983335;28;20113;-42
2023/04/03 04:40:25;;;;;;;4.00;3.17;;;2.40;99.90;;;;;;4978867;28;20057;-43
2023/04/03 04:42:51;;;;;;;3.40;3.00;;;2.40;99.90;;;;;;4977954;28;20035;-42
2023/04/03 04:45:16;;;;;;;5.07;3.78;;;2.30;99.90;;;;;;4984206;28;20064;-42
2023/04/03 04:47:42;;;;;;;4.07;3.20;;;2.30;99.90;;;;;;4981749;28;20061;-43
2023/04/03 04:50:08;;;;;;;3.75;3.22;;;2.40;99.90;;;;;;4980451;28;20666;-42
2023/04/03 04:52:34;;;;;;;5.03;3.53;;;2.40;99.90;;;;;;4981819;28;20428;-42
2023/04/03 04:55:00;;;;;;;6.45;3.60;;;2.30;99.90;;;;;;4980260;28;20027;-42
2023/04/03 04:57:25;;;;;;;4.07;3.42;;;2.40;99.90;;;;;;4980123;28;20034;-42
2023/04/03 04:59:51;;;;;;;3.83;3.53;;;2.30;99.90;;;;;;4981215;28;20125;-42
2023/04/03 05:02:17;;;;;;;5.30;3.50;;;2.40;99.90;;;;;;4979209;28;20109;-42
2023/04/03 05:04:43;;;;;;;5.10;3.45;;;2.30;99.90;;;;;;4979725;28;20042;-42
2023/04/03 05:07:09;;;;;;;6.55;3.90;;;2.40;99.90;;;;;;4977955;28;20031;-42
2023/04/03 05:09:35;;;;;;;3.78;3.03;;;2.40;99.90;;;;;;4982632;28;20074;-46
2023/04/03 05:12:00;;;;;;;5.35;2.92;;;2.40;99.90;;;;;;4979432;28;20031;-43
2023/04/03 05:14:26;;;;;;;6.50;3.40;;;2.30;99.90;;;;;;4978836;28;20035;-42
2023/04/03 05:16:52;;;;;;;3.85;2.90;;;2.40;99.90;;;;;;4979463;28;20109;-42
2023/04/03 05:19:18;;;;;;;7.32;3.80;;;2.40;99.90;;;;;;4983222;28;20069;-42
2023/04/03 05:21:44;;;;;;;5.55;3.30;;;2.40;99.90;;;;;;4976555;28;20134;-42
2023/04/03 05:24:09;;;;;;;5.72;3.50;;;2.30;99.90;;;;;;4984787;28;20109;-43
2023/04/03 05:26:35;;;;;;;3.45;3.15;;;2.30;99.90;;;;;;4985552;28;20089;-42
2023/04/03 05:29:01;;;;;;;3.65;3.30;;;2.30;99.90;;;;;;4979186;28;20027;-43
2023/04/03 05:31:29;;;;;;;4.70;3.28;;;2.30;99.90;;;;;;4984237;28;20034;-42
2023/04/03 05:33:55;;;;;;;3.58;3.28;;;2.30;99.90;;;;;;4980931;28;20030;-42
2023/04/03 05:36:21;;;;;;;6.32;3.47;;;2.30;99.90;;;;;;4979531;28;20650;-42
2023/04/03 05:38:47;;;;;;;4.20;3.80;;;2.30;99.90;;;;;;4977807;28;20042;-42
2023/04/03 05:41:13;;;;;;;4.57;3.47;;;2.30;99.90;;;;;;4977877;28;20407;-43
2023/04/03 05:43:39;;;;;;;6.68;3.40;;;2.30;99.90;;;;;;4977150;28;20039;-42
2023/04/03 05:46:16;;;;;;;3.22;2.90;;;2.30;99.90;;;;;;4981594;28;20037;-42
2023/04/03 05:48:42;;;;;;;4.10;3.30;;;2.30;99.90;;;;;;4975792;28;20485;-42
2023/04/03 05:51:15;;;;;;;3.90;3.50;;;2.30;99.90;;;;;;4977291;28;20412;-42
2023/04/03 05:53:42;;;;;;;4.15;3.38;;;2.30;99.90;;;;;;4977078;28;20026;-42
2023/04/03 05:56:08;;;;;;;4.80;3.33;;;2.40;99.90;;;;;;4981940;28;20050;-42
2023/04/03 05:58:34;;;;;;;4.18;3.30;;;2.30;99.90;;;;;;4983095;28;20034;-42
2023/04/03 06:00:59;;;;;;;5.50;3.65;;;2.30;99.90;;;;;;4981199;28;20432;-42
2023/04/03 06:03:25;;;;;;;5.85;4.03;;;2.40;99.90;;;;;;4977494;28;20054;-42
2023/04/03 06:05:51;;;;;;;3.72;3.35;;;2.40;99.90;;;;;;4981443;28;20046;-43
2023/04/03 06:08:17;;;;;;;6.25;4.05;;;2.40;99.90;;;;;;4981553;28;20027;-42
2023/04/03 06:10:43;;;;;;;7.22;4.00;;;2.40;99.90;;;;;;4981556;28;20109;-42
2023/04/03 06:13:08;;;;;;;4.28;3.22;;;2.40;99.90;;;;;;4983212;28;20034;-43
2023/04/03 06:15:34;;;;;;;6.55;4.38;;;2.40;99.90;;;;;;4988671;28;20511;-43
2023/04/03 06:17:59;;;;;;;6.38;4.20;;;2.40;99.90;;;;;;4982666;28;20376;-43
2023/04/03 06:20:25;;;;;;;7.05;4.28;;;2.40;99.90;;;;;;4983277;28;20034;-42
2023/04/03 06:22:51;;;;;;;4.90;3.88;;;2.40;99.90;;;;;;4987314;28;20035;-42
2023/04/03 06:25:18;;;;;;;5.32;3.75;;;2.40;99.90;;;;;;4985190;28;20030;-42
2023/04/03 06:27:45;;;;;;;5.47;3.90;;;2.50;99.90;;;;;;4984168;28;20113;-42
2023/04/03 06:30:11;;;;;;;3.97;3.60;;;2.50;99.90;;;;;;4986192;28;20026;-42
2023/04/03 06:32:37;;;;;;;5.25;4.00;;;2.50;99.90;;;;;;4984832;28;20030;-42
2023/04/03 06:35:04;;;;;;;7.53;4.57;;;2.50;99.90;;;;;;4985483;28;20045;-43
2023/04/03 06:37:30;;;;;;;5.18;4.25;;;2.50;99.90;;;;;;4981855;28;20026;-42
2023/04/03 06:39:56;;;;;;;5.03;3.75;;;2.50;99.90;;;;;;4984567;28;20524;-43
2023/04/03 06:42:22;;;;;;;5.28;4.30;;;2.60;99.90;;;;;;4985904;28;20030;-42
2023/04/03 06:44:47;;;;;;;6.68;3.90;;;2.60;99.90;;;;;;4980609;28;20062;-42
2023/04/03 06:47:15;;;;;;;5.35;4.03;;;2.60;99.90;;;;;;4986487;28;20045;-42
2023/04/03 06:49:41;;;;;;;9.13;4.28;;;2.60;99.90;;;;;;4981701;28;20433;-42
2023/04/03 06:52:07;;;;;;;5.15;4.18;;;2.60;99.90;;;;;;4982772;28;20019;-42
2023/04/03 06:54:33;;;;;;;6.45;4.80;;;2.70;99.90;;;;;;4984903;28;20035;-42
2023/04/03 06:56:59;;;;;;;6.20;4.60;;;2.70;99.90;;;;;;4985895;28;20033;-43
2023/04/03 06:59:25;;;;;;;6.05;4.10;;;2.70;99.90;;;;;;4984218;28;20027;-43
2023/04/03 07:01:51;;;;;;;4.55;4.03;;;2.80;99.90;;;;;;4981163;28;20069;-43
2023/04/03 07:04:19;;;;;;;4.97;4.47;;;2.80;99.90;;;;;;4980654;28;20083;-42
2023/04/03 07:06:44;;;;;;;6.32;4.88;;;2.80;99.90;;;;;;4987785;28;20035;-42
2023/04/03 07:09:10;;;;;;;5.00;4.00;;;2.70;99.90;;;;;;4984371;28;20038;-42
2023/04/03 07:11:36;;;;;;;6.82;4.00;;;2.80;99.90;;;;;;4984408;28;20030;-42
2023/04/03 07:14:02;;;;;;;5.13;4.43;;;2.80;99.90;;;;;;4984946;28;20788;-42
2023/04/03 07:16:30;;;;;;;6.57;4.78;;;2.90;99.90;;;;;;4983827;28;20101;-42
2023/04/03 07:18:56;;;;;;;5.43;4.07;;;2.90;99.90;;;;;;4984513;28;20046;-42
2023/04/03 07:21:21;;;;;;;5.05;3.97;;;2.90;99.90;;;;;;4988592;28;20424;-42
2023/04/03 07:23:47;;;;;;;5.50;4.10;;;2.90;99.90;;;;;;4984103;28;20046;-42
2023/04/03 07:26:13;;;;;;;6.32;4.30;;;3.00;99.90;;;;;;4985604;28;20115;-42
2023/04/03 07:28:40;;;;;;;5.70;4.40;;;3.00;99.90;;;;;;4983148;28;20038;-42
2023/04/03 07:31:10;;;;;;;5.05;3.80;;;3.10;99.90;;;;;;4984119;28;20043;-42
2023/04/03 07:33:37;;;;;;;4.78;3.88;;;3.00;99.90;;;;;;4985340;28;20033;-42
2023/04/03 07:36:04;;;;;;;5.60;4.35;;;3.10;99.90;;;;;;4982869;28;20034;-42
2023/04/03 07:38:30;;;;;;;5.82;4.15;;;3.10;99.90;;;;;;4985235;28;20041;-43
2023/04/03 07:40:56;;;;;;;5.70;4.13;;;3.10;99.90;;;;;;4985803;28;20551;-42
2023/04/03 07:43:22;;;;;;;6.10;4.03;;;3.10;99.90;;;;;;4987068;28;20061;-42
2023/04/03 07:45:51;;;;;;;5.65;4.32;;;3.20;99.90;;;;;;4985340;28;20026;-43
2023/04/03 07:48:22;;;;;;;4.43;3.97;;;3.20;99.90;;;;;;4986179;28;20057;-42
2023/04/03 07:50:48;;;;;;;5.88;4.43;;;3.20;99.90;;;;;;4981825;28;20093;-42
2023/04/03 07:53:14;;;;;;;7.22;5.47;;;3.20;99.90;;;;;;4983797;28;20034;-43
2023/04/03 07:55:42;;;;;;;5.25;4.75;;;3.20;99.90;;;;;;4987025;28;20038;-42
2023/04/03 07:58:14;;;;;;;6.18;4.85;;;3.30;99.90;;;;;;4982977;28;20031;-42
2023/04/03 08:00:40;;;;;;;6.55;5.07;;;3.50;99.90;;;;;;4988122;28;20066;-42
2023/04/03 08:03:08;;;;;;;6.43;4.90;;;3.40;99.90;;;;;;4979733;28;20035;-42
2023/04/03 08:05:41;;;;;;;4.18;3.78;;;3.50;99.90;;;;;;4985676;28;21014;-42
2023/04/03 08:08:07;;;;;;;5.82;4.63;;;3.50;99.90;;;;;;4984869;28;20019;-42
2023/04/03 08:10:33;;;;;;;5.50;4.78;;;3.50;99.90;;;;;;4996370;28;20054;-42
2023/04/03 08:13:00;;;;;;;5.78;4.78;;;3.50;99.90;;;;;;4982725;28;20042;-42
2023/04/03 08:15:26;;;;;;;5.82;4.30;;;3.60;99.90;;;;;;4982905;28;20054;-42
2023/04/03 08:17:52;;;;;;;8.00;4.20;;;3.50;99.90;;;;;;4984161;28;20042;-42
2023/04/03 08:20:18;;;;;;;6.82;4.47;;;3.50;99.90;;;;;;4980574;28;20393;-42
2023/04/03 08:22:43;;;;;;;5.35;4.85;;;3.60;99.90;;;;;;4981907;28;20490;-42
2023/04/03 08:25:09;;;;;;;6.45;4.50;;;3.60;99.90;;;;;;4980373;28;20384;-42
2023/04/03 08:27:35;;;;;;;5.70;4.55;;;3.60;99.90;;;;;;4984681;28;20035;-42
2023/04/03 08:30:01;;;;;;;4.68;4.28;;;3.70;99.90;;;;;;4984215;28;20436;-42
2023/04/03 08:32:27;;;;;;;5.35;4.20;;;3.80;99.90;;;;;;4980572;28;20505;-42
2023/04/03 08:34:52;;;;;;;4.55;4.10;;;3.80;99.90;;;;;;4985246;28;20034;-42
2023/04/03 08:37:19;;;;;;;4.75;4.22;;;3.80;99.90;;;;;;4985841;28;20545;-42
2023/04/03 08:39:44;;;;;;;7.05;4.35;;;3.80;99.90;;;;;;4987676;28;20101;-42
2023/04/03 08:42:23;;;;;;;7.13;4.70;;;3.90;99.90;;;;;;4985529;28;20030;-42
2023/04/03 08:45:42;;;;;;;5.65;4.30;;;3.90;99.90;;;;;;4982695;28;20025;-42
2023/04/03 08:48:23;;;;;;;4.38;3.97;;;4.00;99.90;;;;;;4966684;28;20033;-42
2023/04/03 08:50:59;;;;;;;4.18;3.78;;;3.90;99.90;;;;;;4962587;28;20038;-42
2023/04/03 08:53:32;;;;;;;6.00;4.38;;;3.90;99.90;;;;;;4978999;28;20075;-42
2023/04/03 08:56:00;;;;;;;8.90;4.68;;;3.90;99.90;;;;;;4982540;28;20733;-42
2023/04/03 08:58:40;;;;;;;5.00;4.50;;;4.00;99.90;;;;;;4981330;28;20038;-42
2023/04/03 09:01:40;;;;;;;4.82;4.28;;;4.00;99.90;;;;;;4976797;28;20432;-42
2023/04/03 09:04:15;;;;;;;4.90;4.40;;;4.00;99.90;;;;;;4979521;28;20046;-42
2023/04/03 09:06:46;;;;;;;4.97;4.43;;;4.00;99.90;;;;;;4980072;28;20039;-42
2023/04/03 09:09:33;;;;;;;5.88;4.60;;;4.00;99.90;;;;;;4983102;28;20341;-42
2023/04/03 09:12:15;;;;;;;4.60;4.13;;;4.00;99.90;;;;;;4981530;28;20046;-42
2023/04/03 09:15:05;;;;;;;6.85;4.25;;;3.90;99.90;;;;;;4978042;28;20627;-42
2023/04/03 09:18:01;;;;;;;5.22;4.47;;;3.90;99.90;;;;;;4981427;28;20031;-42
2023/04/03 09:20:57;;;;;;;6.72;4.03;;;3.80;99.90;;;;;;4981880;28;20030;-42
2023/04/03 09:23:35;;;;;;;5.05;4.35;;;3.80;99.90;;;;;;4979247;28;20375;-42
2023/04/03 09:26:10;;;;;;;4.60;3.97;;;3.80;99.90;;;;;;4984058;28;20034;-42
2023/04/03 09:28:39;;;;;;;4.03;3.20;;;3.90;99.90;;;;;;4982630;28;20076;-42
2023/04/03 09:31:26;;;;;;;5.03;4.10;;;3.90;99.90;;;;;;4982869;28;20315;-42
2023/04/03 09:33:59;;;;;;;5.72;4.63;;;3.90;99.90;;;;;;4982478;28;20088;-42
2023/04/03 09:37:05;;;;;;;6.53;4.10;;;3.90;99.90;;;;;;4983111;28;20037;-42
2023/04/03 09:39:32;;;;;;;4.40;4.00;;;3.90;99.90;;;;;;4976663;28;20058;-42
2023/04/03 09:41:58;;;;;;;5.68;4.40;;;3.80;99.90;;;;;;4984718;28;20049;-42
2023/04/03 09:44:27;;;;;;;5.40;4.35;;;3.80;99.90;;;;;;4984802;28;20030;-42
2023/04/03 09:46:53;;;;;;;4.60;4.00;;;3.70;99.90;;;;;;4980052;28;20049;-42
2023/04/03 09:49:19;;;;;;;4.80;4.32;;;3.70;99.90;;;;;;4983768;28;20050;-42
2023/04/03 09:51:45;;;;;;;7.43;4.47;;;3.80;99.90;;;;;;4980971;28;20030;-42
2023/04/03 09:54:30;;;;;;;5.40;3.78;;;3.80;99.90;;;;;;4980514;28;20432;-42
2023/04/03 09:57:00;;;;;;;4.72;4.05;;;3.80;99.90;;;;;;4995951;28;20125;-42
2023/04/03 09:59:26;;;;;;;8.23;4.75;;;3.80;99.90;;;;;;4983064;28;20061;-42
2023/04/03 10:02:01;;;;;;;4.57;4.20;;;3.80;99.90;;;;;;4979186;28;20070;-42
2023/04/03 10:04:39;;;;;;;5.70;4.22;;;3.80;99.90;;;;;;4981787;28;20046;-42
2023/04/03 10:07:29;;;;;;;5.93;4.68;;;3.80;99.90;;;;;;4980827;28;20019;-42
2023/04/03 10:10:01;;;;;;;5.20;4.25;;;3.80;99.90;;;;;;4982398;28;20561;-42
2023/04/03 10:12:27;;;;;;;5.68;4.10;;;3.90;99.90;;;;;;4979637;28;20082;-42
2023/04/03 10:14:55;;;;;;;4.53;3.80;;;3.90;99.90;;;;;;4984149;28;20118;-42
2023/04/03 10:17:21;;;;;;;5.22;4.72;;;4.00;99.90;;;;;;4969465;28;20034;-42
2023/04/03 10:19:58;;;;;;;7.80;4.90;;;4.10;99.90;;;;;;4984249;28;20384;-42
2023/04/03 10:22:51;;;;;;;4.60;4.20;;;4.30;99.90;;;;;;4978563;28;20101;-42
2023/04/03 10:26:14;;;;;;;4.68;3.78;;;4.40;99.90;;;;;;4981713;28;20042;-42
2023/04/03 10:28:55;;;;;;;4.85;4.35;;;4.30;99.90;;;;;;4961869;28;20031;-42
2023/04/03 10:31:45;;;;;;;5.55;4.35;;;4.20;99.90;;;;;;4957472;28;20041;-42
2023/04/03 10:34:25;;;;;;;5.03;3.88;;;4.30;99.90;;;;;;4957609;28;20054;-42
2023/04/03 10:37:18;;;;;;;6.13;4.25;;;4.30;99.90;;;;;;4983681;28;20038;-42
2023/04/03 10:39:59;;;;;;;4.03;3.67;;;4.30;99.90;;;;;;4981343;28;20121;-42
2023/04/03 10:42:41;;;;;;;5.28;4.45;;;4.20;99.90;;;;;;4985436;28;20025;-42
2023/04/03 10:45:15;;;;;;;4.75;4.30;;;4.10;99.90;;;;;;4982261;28;20026;-42
2023/04/03 10:47:49;;;;;;;5.00;4.47;;;4.10;99.90;;;;;;4983956;28;20039;-42
2023/04/03 10:50:31;;;;;;;5.63;4.20;;;4.10;99.90;;;;;;4977808;28;20094;-43
2023/04/03 10:53:32;;;;;;;4.00;3.70;;;4.10;99.90;;;;;;4984030;28;20058;-42
2023/04/03 10:56:03;;;;;;;5.60;4.25;;;4.20;99.90;;;;;;4981728;28;20097;-42
2023/04/03 10:58:34;;;;;;;6.80;4.45;;;4.20;99.90;;;;;;4984121;28;20088;-42
2023/04/03 11:01:07;;;;;;;4.13;3.72;;;4.30;99.90;;;;;;4982656;28;20052;-42
2023/04/03 11:03:40;;;;;;;4.25;3.72;;;4.30;99.90;;;;;;4984276;28;20070;-42
2023/04/03 11:06:10;;;;;;;4.68;4.22;;;4.40;99.90;;;;;;4983714;28;20026;-42
2023/04/03 11:08:57;;;;;;;5.97;4.45;;;4.40;99.90;;;;;;4986394;28;20057;-42
2023/04/03 11:11:27;;;;;;;3.92;3.53;;;4.40;99.90;;;;;;4986650;28;20381;-42
2023/04/03 11:14:18;;;;;;;4.22;3.55;;;4.40;99.90;;;;;;4983564;28;20438;-42
2023/04/03 11:16:47;;;;;;;6.05;4.13;;;4.40;99.90;;;;;;4983876;28;20088;-42
2023/04/03 11:19:58;;;;;;;4.20;3.80;;;4.40;99.90;;;;;;4986657;28;20026;-42
2023/04/03 11:22:28;;;;;;;4.60;4.20;;;4.30;99.90;;;;;;4981081;28;20129;-42
2023/04/03 11:25:13;;;;;;;5.95;4.43;;;4.40;99.90;;;;;;4987295;28;20022;-42
2023/04/03 11:27:43;;;;;;;5.85;4.88;;;4.40;99.90;;;;;;4977251;28;20034;-42
2023/04/03 11:30:35;;;;;;;4.35;3.92;;;4.40;99.90;;;;;;4986055;28;20038;-42
2023/04/03 11:33:38;;;;;;;9.02;3.70;;;4.30;99.90;;;;;;4984736;28;20535;-42
2023/04/03 11:36:19;;;;;;;4.35;3.92;;;4.20;99.90;;;;;;4984563;28;20125;-42
2023/04/03 11:38:47;;;;;;;4.47;4.07;;;4.10;99.90;;;;;;4985846;28;20044;-43
2023/04/03 11:41:14;;;;;;;4.23;3.60;;;4.10;99.90;;;;;;4987552;28;20049;-42
2023/04/03 11:43:42;;;;;;;4.10;3.70;;;4.10;99.90;;;;;;4986095;28;20297;-42
2023/04/03 11:46:08;;;;;;;;;;;4.20;99.90;;;;;;4985589;28;20031;-42
2023/04/03 11:48:34;;;;;;;5.57;4.00;;;4.10;99.90;;;;;;4982911;28;20516;-42
2023/04/03 11:51:26;;;;;;;3.70;3.40;;;4.00;99.90;;;;;;4986407;28;20048;-42
2023/04/03 11:53:52;;;;;;;5.47;3.95;;;4.00;99.90;;;;;;4984036;28;20023;-42
2023/04/03 11:56:23;;;;;;;6.38;3.42;;;4.10;99.90;;;;;;4986791;28;20034;-42
2023/04/03 11:59:11;;;;;;;5.03;3.97;;;4.10;99.90;;;;;;4983340;28;20395;-42
2023/04/03 12:01:51;;;;;;;3.78;3.38;;;4.20;99.90;;;;;;4986397;28;20105;-42
2023/04/03 12:04:20;;;;;;;4.15;3.75;;;4.30;99.90;;;;;;4986132;28;20080;-42
2023/04/03 12:07:10;;;;;;;3.20;2.97;;;4.60;99.90;;;;;;4984966;28;20030;-43
2023/04/03 12:09:42;;;;;;;4.97;3.00;;;4.60;99.90;;;;;;4981311;28;20073;-42
2023/04/03 12:12:31;;;;;;;4.45;3.58;;;4.70;99.90;;;;;;4984115;28;20030;-41
2023/04/03 12:15:35;;;;;;;7.88;3.85;;;4.70;99.90;;;;;;4984831;28;20054;-42
2023/04/03 12:18:39;;;;;;;3.15;2.75;;;4.80;99.90;;;;;;4983833;28;20037;-42
2023/04/03 12:21:05;;;;;;;3.65;3.25;;;4.80;99.90;;;;;;4981075;28;20156;-42
2023/04/03 12:23:34;;;;;;;4.53;3.63;;;4.90;99.90;;;;;;4987426;28;20105;-42
2023/04/03 12:26:15;;;;;;;4.15;2.97;;;5.00;99.90;;;;;;4987794;28;20045;-42
2023/04/03 12:28:42;;;;;;;5.85;3.50;;;5.10;99.90;;;;;;4985440;28;20068;-42
2023/04/03 12:31:11;;;;;;;3.97;3.25;;;5.30;99.90;;;;;;4984261;28;20088;-42
2023/04/03 12:34:14;;;;;;;3.40;3.10;;;5.20;99.90;;;;;;4984767;28;20493;-42
2023/04/03 12:37:02;;;;;;;3.95;3.13;;;5.20;99.90;;;;;;4979558;28;20129;-42
2023/04/03 12:40:14;;;;;;;3.55;3.17;;;5.20;99.90;;;;;;4985933;28;20112;-42
2023/04/03 12:42:51;;;;;;;3.53;3.22;;;5.30;99.90;;;;;;4983892;28;20046;-41
2023/04/03 12:45:21;;;;;;;4.07;2.70;;;5.30;99.90;;;;;;4982040;28;20026;-42
2023/04/03 12:47:50;;;;;;;4.63;3.00;;;5.30;99.90;;;;;;4983716;28;20046;-42
2023/04/03 12:50:27;;;;;;;3.83;3.13;;;5.40;99.90;;;;;;4988069;28;20408;-42
2023/04/03 12:53:22;;;;;;;2.63;2.42;;;5.50;99.90;;;;;;4980367;28;20041;-42
2023/04/03 12:55:52;;;;;;;3.13;2.40;;;5.40;99.90;;;;;;4982545;28;20046;-42
2023/04/03 12:58:26;;;;;;;3.78;2.75;;;5.50;99.90;;;;;;4986345;28;20576;-42
2023/04/03 13:01:24;;;;;;;2.75;2.55;;;5.60;99.90;;;;;;4985211;28;20038;-42
2023/04/03 13:03:53;;;;;;;4.15;2.60;;;5.70;97.90;;;;;;4981610;28;20094;-42
2023/04/03 13:06:37;;;;;;;2.70;2.50;;;5.70;99.90;;;;;;4981882;28;20134;-41
2023/04/03 13:09:04;;;;;;;3.53;2.78;;;5.90;99.40;;;;;;4980655;28;20535;-42
2023/04/03 13:11:41;;;;;;;3.42;2.53;;;6.50;99.90;;;;;;4979483;28;20058;-42
2023/04/03 13:14:20;;;;;;;2.57;2.37;;;6.30;96.10;;;;;;4978625;28;20022;-42
2023/04/03 13:17:05;;;;;;;;;;;6.00;99.90;;;;;;4983464;28;20285;-42